createdAt,value
2022-10-11T00:01:52.237Z,16.08
2022-10-11T00:04:25.715Z,15.23
2022-10-11T00:06:59.241Z,16.88
2022-10-11T00:09:32.915Z,21.45
2022-10-11T00:12:08.241Z,15.20
2022-10-11T00:14:41.774Z,17.08
2022-10-11T00:17:15.359Z,18.83
2022-10-11T00:19:48.827Z,18.88
2022-10-11T00:22:22.689Z,23.52
2022-10-11T00:24:56.225Z,18.35
2022-10-11T00:27:31.229Z,16.73
2022-10-11T00:30:06.986Z,22.20
2022-10-11T00:32:40.742Z,14.52
2022-10-11T00:37:47.440Z,17.70
2022-10-11T00:40:22.409Z,22.00
2022-10-11T00:42:57.293Z,18.38
2022-10-11T00:46:01.992Z,20.75
2022-10-11T00:48:41.310Z,16.60
2022-10-11T00:51:21.686Z,18.73
2022-10-11T00:53:55.383Z,21.58
2022-10-11T00:56:34.055Z,18.75
2022-10-11T00:59:14.339Z,17.23
2022-10-11T01:01:47.917Z,18.13
2022-10-11T01:04:21.547Z,22.98
2022-10-11T01:06:56.139Z,18.75
2022-10-11T01:09:31.161Z,19.63
2022-10-11T01:12:08.809Z,19.08
2022-10-11T01:15:05.483Z,21.17
2022-10-11T01:17:47.923Z,17.40
2022-10-11T01:20:32.878Z,22.45
2022-10-11T01:23:38.478Z,18.35
2022-10-11T01:26:58.092Z,18.25
2022-10-11T01:29:46.420Z,20.08
2022-10-11T01:32:28.564Z,19.05
2022-10-11T01:35:07.991Z,22.25
2022-10-11T01:37:45.495Z,18.08
2022-10-11T01:40:23.793Z,16.05
2022-10-11T01:42:58.816Z,20.02
2022-10-11T01:45:34.127Z,19.70
2022-10-11T01:48:11.469Z,16.58
2022-10-11T01:50:46.783Z,24.92
2022-10-11T01:53:51.754Z,21.70
2022-10-11T01:59:42.849Z,19.48
2022-10-11T02:02:31.677Z,18.63
2022-10-11T02:05:10.891Z,24.27
2022-10-11T02:07:50.852Z,22.00
2022-10-11T02:10:33.508Z,21.65
2022-10-11T02:13:10.535Z,18.48
2022-10-11T02:15:49.894Z,23.30
2022-10-11T02:18:27.976Z,20.70
2022-10-11T02:21:03.602Z,24.52
2022-10-11T02:23:42.080Z,20.30
2022-10-11T02:26:16.541Z,20.75
2022-10-11T02:28:54.530Z,21.77
2022-10-11T02:31:30.827Z,20.08
2022-10-11T02:34:12.604Z,22.23
2022-10-11T02:36:56.641Z,22.27
2022-10-11T02:39:37.010Z,20.27
2022-10-11T02:42:16.192Z,22.00
2022-10-11T02:45:00.927Z,20.00
2022-10-11T02:47:36.492Z,21.77
2022-10-11T02:50:11.794Z,19.73
2022-10-11T02:52:45.433Z,21.58
2022-10-11T02:55:19.241Z,18.40
2022-10-11T02:57:52.846Z,19.42
2022-10-11T03:00:26.630Z,20.63
2022-10-11T03:05:40.723Z,24.88
2022-10-11T03:08:16.471Z,24.60
2022-10-11T03:10:50.115Z,19.83
2022-10-11T03:13:23.703Z,19.70
2022-10-11T03:16:03.335Z,23.13
2022-10-11T03:18:38.715Z,19.67
2022-10-11T03:21:12.522Z,17.27
2022-10-11T03:26:19.393Z,21.70
2022-10-11T03:28:53.078Z,18.13
2022-10-11T03:31:26.876Z,24.80
2022-10-11T03:36:35.148Z,22.40
2022-10-11T03:39:09.066Z,19.02
2022-10-11T03:41:42.603Z,22.52
2022-10-11T03:44:16.231Z,26.85
2022-10-11T03:46:49.771Z,26.02
2022-10-11T03:49:24.916Z,22.90
2022-10-11T03:51:58.472Z,22.63
2022-10-11T03:54:32.021Z,23.77
2022-10-11T03:57:05.694Z,21.50
2022-10-11T03:59:39.366Z,23.38
2022-10-11T04:02:12.975Z,23.10
2022-10-11T04:04:48.030Z,28.42
2022-10-11T04:07:21.811Z,26.23
2022-10-11T04:12:31.846Z,25.73
2022-10-11T04:15:06.374Z,25.58
2022-10-11T04:17:40.312Z,24.10
2022-10-11T04:20:15.506Z,24.98
2022-10-11T04:22:49.062Z,31.80
2022-10-11T04:25:22.610Z,24.48
2022-10-11T04:27:56.226Z,25.20
2022-10-11T04:30:29.761Z,20.17
2022-10-11T04:33:15.137Z,22.77
2022-10-11T04:35:50.235Z,25.45
2022-10-11T04:38:23.797Z,23.40
2022-10-11T04:40:57.304Z,29.02
2022-10-11T04:43:30.818Z,25.10
2022-10-11T04:46:05.265Z,26.70
2022-10-11T04:48:39.207Z,21.02
2022-10-11T04:51:14.339Z,25.17
2022-10-11T04:53:48.688Z,20.92
2022-10-11T04:56:22.364Z,26.95
2022-10-11T04:58:55.910Z,23.20
2022-10-11T05:01:29.484Z,27.63
2022-10-11T05:04:03.025Z,28.35
2022-10-11T05:06:37.955Z,27.08
2022-10-11T05:09:11.607Z,31.25
2022-10-11T05:14:20.975Z,26.75
2022-10-11T05:16:54.463Z,24.92
2022-10-11T05:19:28.053Z,24.95
2022-10-11T05:22:02.988Z,24.20
2022-10-11T05:24:36.717Z,28.85
2022-10-11T05:29:43.676Z,28.30
2022-10-11T05:32:17.443Z,29.20
2022-10-11T05:37:25.770Z,29.73
2022-10-11T05:39:59.315Z,29.85
2022-10-11T05:42:32.864Z,24.50
2022-10-11T05:45:07.616Z,30.45
2022-10-11T05:47:41.249Z,27.13
2022-10-11T05:50:15.028Z,31.02
2022-10-11T05:55:23.387Z,24.58
2022-10-11T05:57:57.657Z,31.10
2022-10-11T06:00:31.336Z,26.60
2022-10-11T06:05:38.698Z,22.83
2022-10-11T06:11:01.704Z,28.35
2022-10-11T06:13:35.986Z,22.92
2022-10-11T06:16:10.088Z,28.13
2022-10-11T06:18:46.096Z,22.58
2022-10-11T06:21:25.440Z,22.58
2022-10-11T06:24:01.954Z,23.50
2022-10-11T06:26:35.533Z,25.77
2022-10-11T06:29:10.005Z,23.77
2022-10-11T06:31:43.610Z,19.63
2022-10-11T06:36:50.542Z,24.73
2022-10-11T06:39:25.603Z,20.75
2022-10-11T06:41:59.456Z,23.45
2022-10-11T06:47:08.015Z,19.70
2022-10-11T06:49:41.600Z,29.13
2022-10-11T06:52:15.261Z,25.38
2022-10-11T06:54:50.339Z,23.27
2022-10-11T06:57:25.837Z,25.08
2022-10-11T06:59:59.555Z,22.90
2022-10-11T07:05:07.187Z,30.20
2022-10-11T07:07:40.743Z,28.75
2022-10-11T07:12:49.258Z,26.83
2022-10-11T07:15:23.092Z,29.60
2022-10-11T07:17:56.691Z,26.00
2022-10-11T07:20:33.165Z,30.05
2022-10-11T07:23:06.842Z,28.65
2022-10-11T07:28:15.710Z,30.20
2022-10-11T07:30:50.244Z,26.10
2022-10-11T07:33:23.863Z,26.80
2022-10-11T07:41:08.346Z,26.95
2022-10-11T07:43:43.657Z,19.10
2022-10-11T07:46:17.423Z,21.48
2022-10-11T07:51:25.674Z,20.70
2022-10-11T07:54:01.341Z,23.73
2022-10-11T07:56:40.314Z,18.95
2022-10-11T07:59:13.940Z,19.80
2022-10-11T08:04:21.578Z,16.83
2022-10-11T08:06:55.116Z,14.77
2022-10-11T08:09:28.931Z,20.67
2022-10-11T08:12:04.344Z,15.40
2022-10-11T08:14:38.251Z,15.35
2022-10-11T08:17:12.189Z,15.95
2022-10-11T08:19:45.738Z,16.23
2022-10-11T08:22:19.791Z,13.23
2022-10-11T08:24:53.356Z,12.15
2022-10-11T08:30:01.527Z,15.80
2022-10-11T08:35:09.034Z,13.47
2022-10-11T08:37:42.560Z,17.23
2022-10-11T08:42:59.388Z,12.80
2022-10-11T08:45:36.906Z,11.32
2022-10-11T08:48:17.534Z,14.13
2022-10-11T08:50:53.781Z,11.40
2022-10-11T08:53:37.871Z,14.35
2022-10-11T08:56:14.697Z,11.57
2022-10-11T08:58:54.013Z,11.30
2022-10-11T09:01:29.459Z,12.30
2022-10-11T09:04:04.233Z,30.65
2022-10-11T09:06:45.272Z,11.70
2022-10-11T09:09:30.590Z,10.23
2022-10-11T09:12:12.500Z,11.43
2022-10-11T09:15:09.009Z,9.35
2022-10-11T09:18:04.790Z,11.98
2022-10-11T09:20:49.651Z,12.20
2022-10-11T09:23:40.384Z,11.35
2022-10-11T09:26:24.815Z,10.75
2022-10-11T09:29:07.987Z,10.18
2022-10-11T09:31:47.638Z,7.03
2022-10-11T09:34:23.570Z,10.43
2022-10-11T09:37:04.912Z,9.98
2022-10-11T09:39:45.317Z,9.15
2022-10-11T09:42:19.038Z,8.15
2022-10-11T09:44:53.080Z,8.45
2022-10-11T09:47:30.022Z,6.97
2022-10-11T09:50:06.866Z,9.52
2022-10-11T09:52:50.031Z,4.82
2022-10-11T09:55:36.341Z,7.65
2022-10-11T09:58:27.901Z,7.75
2022-10-11T10:01:07.923Z,5.55
2022-10-11T10:03:45.204Z,9.98
2022-10-11T10:06:25.002Z,7.45
2022-10-11T10:09:21.620Z,8.70
2022-10-11T10:11:56.367Z,4.68
2022-10-11T10:14:31.644Z,7.85
2022-10-11T10:17:08.728Z,8.30
2022-10-11T10:19:50.748Z,12.90
2022-10-11T10:22:28.320Z,7.63
2022-10-11T10:25:06.110Z,6.57
2022-10-11T10:27:39.648Z,7.25
2022-10-11T10:30:17.193Z,5.57
2022-10-11T10:32:56.289Z,5.65
2022-10-11T10:35:38.874Z,6.65
2022-10-11T10:38:19.797Z,7.15
2022-10-11T10:40:58.306Z,9.73
2022-10-11T10:43:35.687Z,11.10
2022-10-11T10:46:23.710Z,7.90
2022-10-11T10:49:34.580Z,7.72
2022-10-11T10:52:13.223Z,3.95
2022-10-11T10:54:54.026Z,6.45
2022-10-11T10:57:37.220Z,5.15
2022-10-11T11:00:16.361Z,7.32
2022-10-11T11:02:56.577Z,6.63
2022-10-11T11:05:42.492Z,8.32
2022-10-11T11:08:30.004Z,8.48
2022-10-11T11:11:13.765Z,6.47
2022-10-11T11:13:54.971Z,7.55
2022-10-11T11:16:38.286Z,6.65
2022-10-11T11:19:23.512Z,7.53
2022-10-11T11:22:03.248Z,4.65
2022-10-11T11:24:46.835Z,5.38
2022-10-11T11:27:34.465Z,7.25
2022-10-11T11:30:13.150Z,4.78
2022-10-11T11:32:58.175Z,6.80
2022-10-11T11:35:38.388Z,6.90
2022-10-11T11:38:18.043Z,6.63
2022-10-11T11:40:57.622Z,7.03
2022-10-11T11:43:36.525Z,6.18
2022-10-11T11:46:16.780Z,6.63
2022-10-11T11:48:52.601Z,7.38
2022-10-11T11:51:31.887Z,8.30
2022-10-11T11:54:16.807Z,8.07
2022-10-11T11:56:59.599Z,7.15
2022-10-11T12:02:34.743Z,4.75
2022-10-11T12:05:08.950Z,6.55
2022-10-11T12:07:53.468Z,6.85
2022-10-11T12:10:37.089Z,3.47
2022-10-11T12:13:26.301Z,8.80
2022-10-11T12:16:11.141Z,5.22
2022-10-11T12:21:32.850Z,8.48
2022-10-11T12:24:13.494Z,8.98
2022-10-11T12:26:48.998Z,10.10
2022-10-11T12:29:46.401Z,7.88
2022-10-11T12:32:52.263Z,7.07
2022-10-11T12:36:04.047Z,7.63
2022-10-11T12:38:42.032Z,6.30
2022-10-11T12:41:50.910Z,6.40
2022-10-11T12:44:26.521Z,4.38
2022-10-11T12:47:27.787Z,8.50
2022-10-11T12:50:11.701Z,5.28
2022-10-11T12:52:59.205Z,5.32
2022-10-11T12:55:46.895Z,6.90
2022-10-11T12:58:30.027Z,3.60
2022-10-11T13:01:23.406Z,5.57
2022-10-11T13:04:05.501Z,6.80
2022-10-11T13:06:46.726Z,7.70
2022-10-11T13:09:28.897Z,5.43
2022-10-11T13:12:06.702Z,8.82
2022-10-11T13:14:46.652Z,5.10
2022-10-11T13:17:24.926Z,5.35
2022-10-11T13:20:03.626Z,4.20
2022-10-11T13:22:40.850Z,7.68
2022-10-11T13:25:18.782Z,5.60
2022-10-11T13:27:55.327Z,7.80
2022-10-11T13:30:31.708Z,6.57
2022-10-11T13:33:09.971Z,6.63
2022-10-11T13:35:45.218Z,7.20
2022-10-11T13:38:24.134Z,10.85
2022-10-11T13:41:00.196Z,5.75
2022-10-11T13:43:34.278Z,9.20
2022-10-11T13:46:09.364Z,5.68
2022-10-11T13:48:43.353Z,5.43
2022-10-11T13:51:29.729Z,8.23
2022-10-11T13:54:05.436Z,6.05
2022-10-11T13:56:45.573Z,6.60
2022-10-11T13:59:22.070Z,6.10
2022-10-11T14:02:04.597Z,8.60
2022-10-11T14:04:42.048Z,7.43
2022-10-11T14:07:26.369Z,6.53
2022-10-11T14:10:00.497Z,6.05
2022-10-11T14:12:38.304Z,7.93
2022-10-11T14:15:27.152Z,7.00
2022-10-11T14:18:01.840Z,7.18
2022-10-11T14:20:38.949Z,8.38
2022-10-11T14:23:14.384Z,6.30
2022-10-11T14:25:48.402Z,10.43
2022-10-11T14:28:22.220Z,4.85
2022-10-11T14:30:55.962Z,5.70
2022-10-11T14:33:31.052Z,7.05
2022-10-11T14:36:05.169Z,7.20
2022-10-11T14:38:40.678Z,7.25
2022-10-11T14:41:14.256Z,9.23
2022-10-11T14:43:47.790Z,12.52
2022-10-11T14:48:56.982Z,17.35
2022-10-11T14:51:36.607Z,11.00
2022-10-11T14:54:12.251Z,14.27
2022-10-11T14:56:48.465Z,6.97
2022-10-11T14:59:24.213Z,12.50
2022-10-11T15:01:57.730Z,8.88
2022-10-11T15:07:05.960Z,12.32
2022-10-11T15:09:40.962Z,13.43
2022-10-11T15:12:14.570Z,15.02
2022-10-11T15:17:21.320Z,19.98
2022-10-11T15:22:28.166Z,17.88
2022-10-11T15:27:36.468Z,15.82
2022-10-11T15:32:50.135Z,18.38
2022-10-11T15:35:25.596Z,17.13
2022-10-11T15:38:01.392Z,13.65
2022-10-11T15:40:37.914Z,13.80
2022-10-11T15:43:11.712Z,10.25
2022-10-11T15:45:45.684Z,10.77
2022-10-11T15:48:24.091Z,10.55
2022-10-11T15:50:58.833Z,12.57
2022-10-11T15:53:32.759Z,14.25
2022-10-11T15:56:10.615Z,20.48
2022-10-11T15:58:44.903Z,11.93
2022-10-11T16:01:20.880Z,17.58
2022-10-11T16:03:54.608Z,14.55
2022-10-11T16:09:02.506Z,18.83
2022-10-11T16:11:37.692Z,16.98
2022-10-11T16:14:11.407Z,14.45
2022-10-11T16:19:18.414Z,14.35
2022-10-11T16:24:25.428Z,13.52
2022-10-11T16:27:02.733Z,20.55
2022-10-11T16:29:37.046Z,24.23
2022-10-11T16:32:10.869Z,32.25
2022-10-11T16:34:44.789Z,50.80
2022-10-11T16:37:18.730Z,101.10
2022-10-11T16:39:52.404Z,76.15
2022-10-11T16:45:01.183Z,82.50
2022-10-11T16:50:09.214Z,143.07
2022-10-11T16:52:43.035Z,124.88
2022-10-11T16:55:16.637Z,106.43
2022-10-11T16:57:51.936Z,88.72
2022-10-11T17:00:26.192Z,80.22
2022-10-11T17:03:03.342Z,62.15
2022-10-11T17:05:37.984Z,63.08
2022-10-11T17:08:14.487Z,53.38
2022-10-11T17:13:36.965Z,55.50
2022-10-11T17:16:14.120Z,45.63
2022-10-11T17:18:51.281Z,46.72
2022-10-11T17:21:25.427Z,42.78
2022-10-11T17:23:59.295Z,43.08
2022-10-11T17:26:34.173Z,40.50
2022-10-11T17:29:14.292Z,46.67
2022-10-11T17:31:49.662Z,46.33
2022-10-11T17:34:25.689Z,44.88
2022-10-11T17:36:59.453Z,38.20
2022-10-11T17:42:07.849Z,40.08
2022-10-11T17:44:48.052Z,27.65
2022-10-11T17:47:21.893Z,31.10
2022-10-11T17:49:55.600Z,34.40
2022-10-11T17:52:29.839Z,27.40
2022-10-11T17:55:03.777Z,33.03
2022-10-11T17:57:37.448Z,28.55
2022-10-11T18:02:47.016Z,22.45
2022-10-11T18:05:20.643Z,21.23
2022-10-11T18:07:54.346Z,21.42
2022-10-11T18:13:06.824Z,24.85
2022-10-11T18:15:44.100Z,22.08
2022-10-11T18:18:18.414Z,26.98
2022-10-11T18:20:52.470Z,20.85
2022-10-11T18:23:26.359Z,25.52
2022-10-11T18:28:36.546Z,21.98
2022-10-11T18:31:14.701Z,22.60
2022-10-11T18:33:51.162Z,23.58
2022-10-11T18:36:27.737Z,26.40
2022-10-11T18:39:04.539Z,27.10
2022-10-11T18:41:42.122Z,32.25
2022-10-11T18:44:16.878Z,35.58
2022-10-11T18:46:53.527Z,35.13
2022-10-11T18:49:27.096Z,32.35
2022-10-11T18:52:00.889Z,32.20
2022-10-11T18:57:08.099Z,34.00
2022-10-11T19:02:21.908Z,31.30
2022-10-11T19:04:55.558Z,36.45
2022-10-11T19:07:29.519Z,35.83
2022-10-11T19:10:04.280Z,31.85
2022-10-11T19:12:37.897Z,34.10
2022-10-11T19:15:16.726Z,25.98
2022-10-11T19:17:51.737Z,28.13
2022-10-11T19:20:25.408Z,29.55
2022-10-11T19:22:58.950Z,36.38
2022-10-11T19:25:36.158Z,40.05
2022-10-11T19:28:13.616Z,51.50
2022-10-11T19:30:53.222Z,38.15
2022-10-11T19:33:38.042Z,45.92
2022-10-11T19:36:15.049Z,35.38
2022-10-11T19:38:50.055Z,35.05
2022-10-11T19:41:26.471Z,33.35
2022-10-11T19:44:02.690Z,43.42
2022-10-11T19:46:52.941Z,39.80
2022-10-11T19:49:31.307Z,41.92
2022-10-11T19:52:04.959Z,46.00
2022-10-11T19:54:46.134Z,45.60
2022-10-11T19:59:52.909Z,33.53
2022-10-11T20:02:26.471Z,40.10
2022-10-11T20:05:01.347Z,52.22
2022-10-11T20:07:34.915Z,54.55
2022-10-11T20:10:11.305Z,53.70
2022-10-11T20:12:46.028Z,51.85
2022-10-11T20:15:19.682Z,55.15
2022-10-11T20:17:53.164Z,43.75
2022-10-11T20:20:28.185Z,52.88
2022-10-11T20:23:01.785Z,45.38
2022-10-11T20:25:35.286Z,42.88
2022-10-11T20:28:08.952Z,43.58
2022-10-11T20:30:46.151Z,43.97
2022-10-11T20:33:19.886Z,43.83
2022-10-11T20:36:04.282Z,37.80
2022-10-11T20:38:40.559Z,52.53
2022-10-11T20:41:18.706Z,48.90
2022-10-11T20:43:54.025Z,48.25
2022-10-11T20:46:32.157Z,44.47
2022-10-11T20:49:07.576Z,48.55
2022-10-11T20:51:46.629Z,50.08
2022-10-11T20:54:21.346Z,51.15
2022-10-11T20:56:57.718Z,47.58
2022-10-11T20:59:39.247Z,56.88
2022-10-11T21:02:19.095Z,49.28
2022-10-11T21:04:52.971Z,57.25
2022-10-11T21:10:02.581Z,53.30
2022-10-11T21:12:38.454Z,44.25
2022-10-11T21:15:15.041Z,52.20
2022-10-11T21:17:51.885Z,44.58
2022-10-11T21:20:28.548Z,45.50
2022-10-11T21:23:04.596Z,44.03
2022-10-11T21:25:39.386Z,44.75
2022-10-11T21:28:13.157Z,44.10
2022-10-11T21:33:27.187Z,50.67
2022-10-11T21:36:00.837Z,43.63
2022-10-11T21:38:37.987Z,43.30
2022-10-11T21:41:16.441Z,41.72
2022-10-11T21:43:51.062Z,48.78
2022-10-11T21:46:47.672Z,44.72
2022-10-11T21:49:21.304Z,47.38
2022-10-11T21:51:55.545Z,45.35
2022-10-11T21:54:31.162Z,38.08
2022-10-11T21:57:07.942Z,42.20
2022-10-11T21:59:43.737Z,59.13
2022-10-11T22:02:17.738Z,47.97
2022-10-11T22:07:27.553Z,47.53
2022-10-11T22:10:05.751Z,54.03
2022-10-11T22:12:39.883Z,40.50
2022-10-11T22:15:13.836Z,41.40
2022-10-11T22:17:50.186Z,42.03
2022-10-11T22:20:24.281Z,44.70
2022-10-11T22:22:58.261Z,46.88
2022-10-11T22:28:14.204Z,36.53
2022-10-11T22:30:48.662Z,39.47
2022-10-11T22:33:22.196Z,39.17
2022-10-11T22:35:57.381Z,35.60
2022-10-11T22:38:31.367Z,34.50
2022-10-11T22:41:11.443Z,34.47
2022-10-11T22:43:46.897Z,38.40
2022-10-11T22:46:25.501Z,33.78
2022-10-11T22:49:00.869Z,77.20
2022-10-11T22:51:34.503Z,58.97
2022-10-11T22:54:08.108Z,101.38
2022-10-11T22:56:43.166Z,112.88
2022-10-11T22:59:16.691Z,97.43
2022-10-11T23:01:50.229Z,84.57
2022-10-11T23:04:23.814Z,62.42
2022-10-11T23:07:01.196Z,56.45
2022-10-11T23:09:37.431Z,62.58
2022-10-11T23:12:12.393Z,57.15
2022-10-11T23:14:45.979Z,54.30
2022-10-11T23:17:19.609Z,56.20
2022-10-11T23:19:53.582Z,56.83
2022-10-11T23:22:27.183Z,50.95
2022-10-11T23:25:00.746Z,46.33
2022-10-11T23:27:36.024Z,52.80
2022-10-11T23:30:11.431Z,46.45
2022-10-11T23:32:45.040Z,47.28
2022-10-11T23:35:20.107Z,50.97
2022-10-11T23:37:54.964Z,44.10
2022-10-11T23:40:28.471Z,40.65
2022-10-11T23:43:03.428Z,45.42
2022-10-11T23:45:36.876Z,44.20
2022-10-11T23:48:10.367Z,42.70
2022-10-11T23:50:44.074Z,42.33
2022-10-11T23:53:17.624Z,32.13
2022-10-11T23:55:51.129Z,34.72
2022-10-11T23:58:26.091Z,39.60
